sensor_id;sensor_type;location;lat;lon;timestamp;pressure;altitude;pressure_sealevel;temperature;humidity
10940;BME280;5522;42.696;23.494;2023-03-25T00:02:21;53715.09;;;-139.68;100.00
10940;BME280;5522;42.696;23.494;2023-03-25T00:04:49;53723.13;;;-139.68;100.00
10940;BME280;5522;42.696;23.494;2023-03-25T00:07:16;53695.00;;;-139.68;100.00
10940;BME280;5522;42.696;23.494;2023-03-25T00:09:44;53719.13;;;-139.68;100.00
10940;BME280;5522;42.696;23.494;2023-03-25T00:12:13;53717.13;;;-139.68;100.00
10940;BME280;5522;42.696;23.494;2023-03-25T00:14:41;53739.22;;;-139.68;100.00
10940;BME280;5522;42.696;23.494;2023-03-25T00:17:08;53723.13;;;-139.68;100.00
10940;BME280;5522;42.696;23.494;2023-03-25T00:19:35;53711.09;;;-139.68;100.00
10940;BME280;5522;42.696;23.494;2023-03-25T00:22:02;53719.13;;;-139.68;100.00
10940;BME280;5522;42.696;23.494;2023-03-25T00:24:29;53749.28;;;-139.68;100.00
10940;BME280;5522;42.696;23.494;2023-03-25T00:26:56;53745.25;;;-139.68;100.00
10940;BME280;5522;42.696;23.494;2023-03-25T00:29:26;53727.16;;;-139.68;100.00
10940;BME280;5522;42.696;23.494;2023-03-25T00:31:53;53721.13;;;-139.68;100.00
10940;BME280;5522;42.696;23.494;2023-03-25T00:34:20;53705.06;;;-139.68;100.00
10940;BME280;5522;42.696;23.494;2023-03-25T00:36:47;53755.31;;;-139.68;100.00
10940;BME280;5522;42.696;23.494;2023-03-25T00:39:14;53693.00;;;-139.68;100.00
10940;BME280;5522;42.696;23.494;2023-03-25T00:41:40;53723.13;;;-139.68;100.00
10940;BME280;5522;42.696;23.494;2023-03-25T00:44:08;53715.09;;;-139.68;100.00
10940;BME280;5522;42.696;23.494;2023-03-25T00:46:40;53715.09;;;-139.68;100.00
10940;BME280;5522;42.696;23.494;2023-03-25T00:49:08;53711.09;;;-139.68;100.00
10940;BME280;5522;42.696;23.494;2023-03-25T00:51:35;53731.19;;;-139.68;100.00
10940;BME280;5522;42.696;23.494;2023-03-25T00:54:02;53711.09;;;-139.68;100.00
10940;BME280;5522;42.696;23.494;2023-03-25T00:56:29;53678.91;;;-139.68;100.00
10940;BME280;5522;42.696;23.494;2023-03-25T00:58:56;53719.13;;;-139.68;100.00
10940;BME280;5522;42.696;23.494;2023-03-25T01:06:50;53715.09;;;-139.68;100.00
10940;BME280;5522;42.696;23.494;2023-03-25T01:09:18;53695.00;;;-139.68;100.00
10940;BME280;5522;42.696;23.494;2023-03-25T01:11:46;53727.16;;;-139.68;100.00
10940;BME280;5522;42.696;23.494;2023-03-25T01:14:16;53674.91;;;-139.68;100.00
10940;BME280;5522;42.696;23.494;2023-03-25T01:16:43;53715.09;;;-139.68;100.00
10940;BME280;5522;42.696;23.494;2023-03-25T01:19:11;53701.03;;;-139.68;100.00
10940;BME280;5522;42.696;23.494;2023-03-25T01:21:39;53672.88;;;-139.68;100.00
10940;BME280;5522;42.696;23.494;2023-03-25T01:24:07;53751.28;;;-139.68;100.00
10940;BME280;5522;42.696;23.494;2023-03-25T01:26:37;53690.97;;;-139.68;100.00
10940;BME280;5522;42.696;23.494;2023-03-25T01:29:05;53719.13;;;-139.68;100.00
10940;BME280;5522;42.696;23.494;2023-03-25T01:31:32;53682.94;;;-139.68;100.00
10940;BME280;5522;42.696;23.494;2023-03-25T01:33:59;53713.09;;;-139.68;100.00
10940;BME280;5522;42.696;23.494;2023-03-25T01:36:26;53690.97;;;-139.68;100.00
10940;BME280;5522;42.696;23.494;2023-03-25T01:38:57;53662.84;;;-139.68;100.00
10940;BME280;5522;42.696;23.494;2023-03-25T01:41:25;53735.19;;;-139.68;100.00
10940;BME280;5522;42.696;23.494;2023-03-25T01:44:06;53705.06;;;-139.68;100.00
10940;BME280;5522;42.696;23.494;2023-03-25T01:46:34;53715.09;;;-139.68;100.00
10940;BME280;5522;42.696;23.494;2023-03-25T01:49:03;53721.13;;;-139.68;100.00
10940;BME280;5522;42.696;23.494;2023-03-25T01:51:36;53701.03;;;-139.68;100.00
10940;BME280;5522;42.696;23.494;2023-03-25T01:54:05;53719.13;;;-139.68;100.00
10940;BME280;5522;42.696;23.494;2023-03-25T01:56:35;53739.22;;;-139.68;100.00
10940;BME280;5522;42.696;23.494;2023-03-25T01:59:05;53707.06;;;-139.68;100.00
10940;BME280;5522;42.696;23.494;2023-03-25T02:01:34;53737.22;;;-139.68;100.00
10940;BME280;5522;42.696;23.494;2023-03-25T02:04:02;53672.88;;;-139.68;100.00
10940;BME280;5522;42.696;23.494;2023-03-25T02:06:39;53721.13;;;-139.68;100.00
10940;BME280;5522;42.696;23.494;2023-03-25T02:09:11;53674.91;;;-139.68;100.00
10940;BME280;5522;42.696;23.494;2023-03-25T02:11:38;53693.00;;;-139.68;100.00
10940;BME280;5522;42.696;23.494;2023-03-25T02:14:08;53699.03;;;-139.68;100.00
10940;BME280;5522;42.696;23.494;2023-03-25T02:16:42;53739.22;;;-139.68;100.00
10940;BME280;5522;42.696;23.494;2023-03-25T02:23:04;53709.06;;;-139.68;100.00
10940;BME280;5522;42.696;23.494;2023-03-25T02:25:55;53739.22;;;-139.68;100.00
10940;BME280;5522;42.696;23.494;2023-03-25T02:28:36;53711.09;;;-139.68;100.00
10940;BME280;5522;42.696;23.494;2023-03-25T02:31:22;53695.00;;;-139.68;100.00
10940;BME280;5522;42.696;23.494;2023-03-25T02:37:24;53703.03;;;-139.68;100.00
10940;BME280;5522;42.696;23.494;2023-03-25T02:40:02;53739.22;;;-139.68;100.00
10940;BME280;5522;42.696;23.494;2023-03-25T02:42:35;53695.00;;;-139.68;100.00
10940;BME280;5522;42.696;23.494;2023-03-25T02:45:06;53703.03;;;-139.68;100.00
10940;BME280;5522;42.696;23.494;2023-03-25T02:47:39;53686.97;;;-139.68;100.00
10940;BME280;5522;42.696;23.494;2023-03-25T02:50:11;53664.84;;;-139.68;100.00
10940;BME280;5522;42.696;23.494;2023-03-25T02:52:43;53703.03;;;-139.68;100.00
10940;BME280;5522;42.696;23.494;2023-03-25T02:55:14;53719.13;;;-139.68;100.00
10940;BME280;5522;42.696;23.494;2023-03-25T02:57:44;53735.19;;;-139.68;100.00
10940;BME280;5522;42.696;23.494;2023-03-25T03:00:14;53695.00;;;-139.68;100.00
10940;BME280;5522;42.696;23.494;2023-03-25T03:02:45;53699.03;;;-139.68;100.00
10940;BME280;5522;42.696;23.494;2023-03-25T03:05:22;53717.13;;;-139.68;100.00
10940;BME280;5522;42.696;23.494;2023-03-25T03:07:54;53715.09;;;-139.68;100.00
10940;BME280;5522;42.696;23.494;2023-03-25T03:10:29;53715.09;;;-139.68;100.00
10940;BME280;5522;42.696;23.494;2023-03-25T03:13:10;53682.94;;;-139.68;100.00
10940;BME280;5522;42.696;23.494;2023-03-25T03:15:46;53695.00;;;-139.68;100.00
10940;BME280;5522;42.696;23.494;2023-03-25T03:18:22;53705.06;;;-139.68;100.00
10940;BME280;5522;42.696;23.494;2023-03-25T03:21:06;53747.25;;;-139.68;100.00
10940;BME280;5522;42.696;23.494;2023-03-25T03:23:44;53693.00;;;-139.68;100.00
10940;BME280;5522;42.696;23.494;2023-03-25T03:26:24;53678.91;;;-139.68;100.00
10940;BME280;5522;42.696;23.494;2023-03-25T03:28:58;53699.03;;;-139.68;100.00
10940;BME280;5522;42.696;23.494;2023-03-25T03:31:32;53725.16;;;-139.68;100.00
10940;BME280;5522;42.696;23.494;2023-03-25T03:34:04;53695.00;;;-139.68;100.00
10940;BME280;5522;42.696;23.494;2023-03-25T03:36:38;53707.06;;;-139.68;100.00
10940;BME280;5522;42.696;23.494;2023-03-25T03:39:11;53678.91;;;-139.68;100.00
10940;BME280;5522;42.696;23.494;2023-03-25T03:41:46;53670.88;;;-139.68;100.00
10940;BME280;5522;42.696;23.494;2023-03-25T03:44:18;53664.84;;;-139.68;100.00
10940;BME280;5522;42.696;23.494;2023-03-25T03:46:50;53713.09;;;-139.68;100.00
10940;BME280;5522;42.696;23.494;2023-03-25T03:49:21;53707.06;;;-139.68;100.00
10940;BME280;5522;42.696;23.494;2023-03-25T03:51:55;53662.84;;;-139.68;100.00
10940;BME280;5522;42.696;23.494;2023-03-25T03:54:25;53693.00;;;-139.68;100.00
10940;BME280;5522;42.696;23.494;2023-03-25T03:56:58;53674.91;;;-139.68;100.00
10940;BME280;5522;42.696;23.494;2023-03-25T03:59:32;53715.09;;;-139.68;100.00
10940;BME280;5522;42.696;23.494;2023-03-25T04:02:06;53717.13;;;-139.68;100.00
10940;BME280;5522;42.696;23.494;2023-03-25T04:04:35;53695.00;;;-139.68;100.00
10940;BME280;5522;42.696;23.494;2023-03-25T04:07:06;53725.16;;;-139.68;100.00
10940;BME280;5522;42.696;23.494;2023-03-25T04:09:40;53719.13;;;-139.68;100.00
10940;BME280;5522;42.696;23.494;2023-03-25T04:12:13;53693.00;;;-139.68;100.00
10940;BME280;5522;42.696;23.494;2023-03-25T04:14:41;53723.13;;;-139.68;100.00
10940;BME280;5522;42.696;23.494;2023-03-25T04:17:08;53703.03;;;-139.68;100.00
10940;BME280;5522;42.696;23.494;2023-03-25T04:19:35;53682.94;;;-139.68;100.00
10940;BME280;5522;42.696;23.494;2023-03-25T04:22:03;53707.06;;;-139.68;100.00
10940;BME280;5522;42.696;23.494;2023-03-25T04:24:30;53678.91;;;-139.68;100.00
10940;BME280;5522;42.696;23.494;2023-03-25T04:26:58;53690.97;;;-139.68;100.00
10940;BME280;5522;42.696;23.494;2023-03-25T04:29:30;53705.06;;;-139.68;100.00
10940;BME280;5522;42.696;23.494;2023-03-25T04:31:58;53697.00;;;-139.68;100.00
10940;BME280;5522;42.696;23.494;2023-03-25T04:34:25;53678.91;;;-139.68;100.00
10940;BME280;5522;42.696;23.494;2023-03-25T04:36:52;53666.84;;;-139.68;100.00
10940;BME280;5522;42.696;23.494;2023-03-25T04:39:19;53688.97;;;-139.68;100.00
10940;BME280;5522;42.696;23.494;2023-03-25T04:41:47;53695.00;;;-139.68;100.00
10940;BME280;5522;42.696;23.494;2023-03-25T04:44:14;53668.88;;;-139.68;100.00
10940;BME280;5522;42.696;23.494;2023-03-25T04:46:43;53703.03;;;-139.68;100.00
10940;BME280;5522;42.696;23.494;2023-03-25T04:49:17;53719.13;;;-139.68;100.00
10940;BME280;5522;42.696;23.494;2023-03-25T04:51:45;53709.06;;;-139.68;100.00
10940;BME280;5522;42.696;23.494;2023-03-25T04:54:14;53695.00;;;-139.68;100.00
10940;BME280;5522;42.696;23.494;2023-03-25T04:56:40;53727.16;;;-139.68;100.00
10940;BME280;5522;42.696;23.494;2023-03-25T04:59:07;53763.34;;;-139.68;100.00
10940;BME280;5522;42.696;23.494;2023-03-25T05:01:36;53717.13;;;-139.68;100.00
10940;BME280;5522;42.696;23.494;2023-03-25T05:04:09;53753.28;;;-139.68;90.52
10940;BME280;5522;42.696;23.494;2023-03-25T05:06:38;53703.03;;;-139.68;85.52
10940;BME280;5522;42.696;23.494;2023-03-25T05:09:08;53775.41;;;-139.68;81.66
10940;BME280;5522;42.696;23.494;2023-03-25T05:11:36;53735.19;;;-139.68;66.56
10940;BME280;5522;42.696;23.494;2023-03-25T05:14:04;53753.28;;;-139.68;57.08
10940;BME280;5522;42.696;23.494;2023-03-25T05:16:31;53767.38;;;-139.68;50.24
10940;BME280;5522;42.696;23.494;2023-03-25T05:18:57;53767.38;;;-139.68;47.96
10940;BME280;5522;42.696;23.494;2023-03-25T05:21:26;53771.38;;;-139.68;46.04
10940;BME280;5522;42.696;23.494;2023-03-25T05:23:52;53759.31;;;-139.68;43.47
10940;BME280;5522;42.696;23.494;2023-03-25T05:26:19;53777.41;;;-139.68;42.80
10940;BME280;5522;42.696;23.494;2023-03-25T05:28:46;53783.44;;;-139.68;42.84
10940;BME280;5522;42.696;23.494;2023-03-25T05:31:16;53767.38;;;-139.68;42.31
10940;BME280;5522;42.696;23.494;2023-03-25T05:33:42;53767.38;;;-139.68;41.37
10940;BME280;5522;42.696;23.494;2023-03-25T05:36:10;53805.56;;;-139.68;40.41
10940;BME280;5522;42.696;23.494;2023-03-25T05:38:39;53791.50;;;-139.68;40.78
10940;BME280;5522;42.696;23.494;2023-03-25T05:41:08;53767.38;;;-139.68;40.82
10940;BME280;5522;42.696;23.494;2023-03-25T05:43:35;53779.44;;;-139.68;40.11
10940;BME280;5522;42.696;23.494;2023-03-25T05:46:03;53735.19;;;-139.68;40.11
10940;BME280;5522;42.696;23.494;2023-03-25T05:48:30;53791.50;;;-139.68;38.54
10940;BME280;5522;42.696;23.494;2023-03-25T05:50:57;53791.50;;;-139.68;37.73
10940;BME280;5522;42.696;23.494;2023-03-25T05:53:24;53779.44;;;-139.68;37.33
10940;BME280;5522;42.696;23.494;2023-03-25T05:55:52;53789.47;;;-139.68;36.79
10940;BME280;5522;42.696;23.494;2023-03-25T05:58:19;53809.59;;;-139.68;35.52
10940;BME280;5522;42.696;23.494;2023-03-25T06:00:46;53755.31;;;-139.68;35.08
10940;BME280;5522;42.696;23.494;2023-03-25T06:03:13;53811.59;;;-139.68;35.98
10940;BME280;5522;42.696;23.494;2023-03-25T06:05:40;53807.56;;;-139.68;35.50
10940;BME280;5522;42.696;23.494;2023-03-25T06:08:07;53831.69;;;-139.68;34.96
10940;BME280;5522;42.696;23.494;2023-03-25T06:10:33;53823.66;;;-139.68;35.12
10940;BME280;5522;42.696;23.494;2023-03-25T06:13:02;53797.53;;;-139.68;35.29
10940;BME280;5522;42.696;23.494;2023-03-25T06:15:29;53791.50;;;-139.68;35.93
10940;BME280;5522;42.696;23.494;2023-03-25T06:18:03;53799.53;;;-139.68;35.12
10940;BME280;5522;42.696;23.494;2023-03-25T06:20:30;53805.56;;;-139.68;35.34
10940;BME280;5522;42.696;23.494;2023-03-25T06:22:57;53775.41;;;-139.68;35.21
10940;BME280;5522;42.696;23.494;2023-03-25T06:25:24;53813.59;;;-139.68;34.41
10940;BME280;5522;42.696;23.494;2023-03-25T06:27:53;53799.53;;;-139.68;34.78
10940;BME280;5522;42.696;23.494;2023-03-25T06:30:23;53795.50;;;-139.68;34.73
10940;BME280;5522;42.696;23.494;2023-03-25T06:32:50;53759.31;;;-139.68;34.47
10940;BME280;5522;42.696;23.494;2023-03-25T06:35:20;53819.63;;;-139.68;34.55
10940;BME280;5522;42.696;23.494;2023-03-25T06:37:48;53791.50;;;-139.68;33.78
10940;BME280;5522;42.696;23.494;2023-03-25T06:40:15;53805.56;;;-139.68;33.87
10940;BME280;5522;42.696;23.494;2023-03-25T06:42:42;53815.63;;;-139.68;32.15
10940;BME280;5522;42.696;23.494;2023-03-25T06:45:09;53825.66;;;-139.68;32.64
10940;BME280;5522;42.696;23.494;2023-03-25T06:47:38;53803.56;;;-139.68;31.83
10940;BME280;5522;42.696;23.494;2023-03-25T06:50:06;53827.69;;;-139.68;31.37
10940;BME280;5522;42.696;23.494;2023-03-25T06:52:33;53827.69;;;-139.68;30.21
10940;BME280;5522;42.696;23.494;2023-03-25T06:55:00;53859.84;;;-139.68;30.29
10940;BME280;5522;42.696;23.494;2023-03-25T06:57:27;53803.56;;;-139.68;30.19
10940;BME280;5522;42.696;23.494;2023-03-25T06:59:54;53807.56;;;-139.68;30.42
10940;BME280;5522;42.696;23.494;2023-03-25T07:02:21;53833.72;;;-139.68;29.95
10940;BME280;5522;42.696;23.494;2023-03-25T07:04:49;53815.63;;;-139.68;28.85
10940;BME280;5522;42.696;23.494;2023-03-25T07:07:16;53841.75;;;-139.68;29.42
10940;BME280;5522;42.696;23.494;2023-03-25T07:09:42;53839.75;;;-139.68;29.05
10940;BME280;5522;42.696;23.494;2023-03-25T07:12:09;53831.69;;;-139.68;29.30
10940;BME280;5522;42.696;23.494;2023-03-25T07:14:36;53843.75;;;-139.68;29.38
10940;BME280;5522;42.696;23.494;2023-03-25T07:17:03;53873.91;;;-139.68;30.17
10940;BME280;5522;42.696;23.494;2023-03-25T07:19:30;53867.88;;;-139.68;29.80
10940;BME280;5522;42.696;23.494;2023-03-25T07:21:58;53865.88;;;-139.68;28.75
10940;BME280;5522;42.696;23.494;2023-03-25T07:24:25;53835.72;;;-139.68;28.37
10940;BME280;5522;42.696;23.494;2023-03-25T07:26:52;53835.72;;;-139.68;28.53
10940;BME280;5522;42.696;23.494;2023-03-25T07:29:19;53875.94;;;-139.68;29.15
10940;BME280;5522;42.696;23.494;2023-03-25T07:31:46;53835.72;;;-139.68;27.79
10940;BME280;5522;42.696;23.494;2023-03-25T07:34:13;53859.84;;;-139.68;28.32
10940;BME280;5522;42.696;23.494;2023-03-25T07:36:40;53873.91;;;-139.68;28.30
10940;BME280;5522;42.696;23.494;2023-03-25T07:39:08;53835.72;;;-139.68;27.49
10940;BME280;5522;42.696;23.494;2023-03-25T07:41:35;53863.88;;;-139.68;27.95
10940;BME280;5522;42.696;23.494;2023-03-25T07:44:02;53849.78;;;-139.68;27.98
10940;BME280;5522;42.696;23.494;2023-03-25T07:46:28;53843.75;;;-139.68;27.76
10940;BME280;5522;42.696;23.494;2023-03-25T07:48:55;53851.81;;;-139.68;28.20
10940;BME280;5522;42.696;23.494;2023-03-25T07:51:22;53831.69;;;-139.68;28.11
10940;BME280;5522;42.696;23.494;2023-03-25T07:53:49;53839.75;;;-139.68;27.67
10940;BME280;5522;42.696;23.494;2023-03-25T07:56:17;53849.78;;;-139.68;27.39
10940;BME280;5522;42.696;23.494;2023-03-25T07:58:44;53841.75;;;-139.68;26.87
10940;BME280;5522;42.696;23.494;2023-03-25T08:01:11;53883.97;;;-139.68;26.90
10940;BME280;5522;42.696;23.494;2023-03-25T08:03:38;53855.81;;;-139.68;27.32
10940;BME280;5522;42.696;23.494;2023-03-25T08:06:06;53807.56;;;-139.68;26.97
10940;BME280;5522;42.696;23.494;2023-03-25T08:08:33;53873.91;;;-139.68;27.78
10940;BME280;5522;42.696;23.494;2023-03-25T08:11:00;53847.78;;;-139.68;27.84
10940;BME280;5522;42.696;23.494;2023-03-25T08:13:29;53839.75;;;-139.68;26.90
10940;BME280;5522;42.696;23.494;2023-03-25T08:15:56;53851.81;;;-139.68;26.66
10940;BME280;5522;42.696;23.494;2023-03-25T08:18:23;53859.84;;;-139.68;27.17
10940;BME280;5522;42.696;23.494;2023-03-25T08:20:50;53867.88;;;-139.68;27.08
10940;BME280;5522;42.696;23.494;2023-03-25T08:23:18;53859.84;;;-139.68;26.22
10940;BME280;5522;42.696;23.494;2023-03-25T08:25:45;53857.84;;;-139.68;26.39
10940;BME280;5522;42.696;23.494;2023-03-25T08:28:14;53906.06;;;-139.68;26.67
10940;BME280;5522;42.696;23.494;2023-03-25T08:30:43;53851.81;;;-139.68;27.62
10940;BME280;5522;42.696;23.494;2023-03-25T08:33:11;53875.94;;;-139.68;26.76
10940;BME280;5522;42.696;23.494;2023-03-25T08:35:37;53879.94;;;-139.68;27.39
10940;BME280;5522;42.696;23.494;2023-03-25T08:38:04;53885.97;;;-139.68;27.06
10940;BME280;5522;42.696;23.494;2023-03-25T08:40:32;53865.88;;;-139.68;26.41
10940;BME280;5522;42.696;23.494;2023-03-25T08:42:58;53841.75;;;-139.68;26.80
10940;BME280;5522;42.696;23.494;2023-03-25T08:45:25;53922.16;;;-139.68;26.94
10940;BME280;5522;42.696;23.494;2023-03-25T08:47:54;53879.94;;;-139.68;27.51
10940;BME280;5522;42.696;23.494;2023-03-25T08:50:20;53940.25;;;-139.68;28.62
10940;BME280;5522;42.696;23.494;2023-03-25T08:52:47;53867.88;;;-139.68;27.80
10940;BME280;5522;42.696;23.494;2023-03-25T08:55:17;53855.81;;;-139.68;28.17
10940;BME280;5522;42.696;23.494;2023-03-25T08:57:44;53898.03;;;-139.68;28.38
10940;BME280;5522;42.696;23.494;2023-03-25T09:00:12;53851.81;;;-139.68;26.83
10940;BME280;5522;42.696;23.494;2023-03-25T09:02:40;53888.00;;;-139.68;26.66
10940;BME280;5522;42.696;23.494;2023-03-25T09:05:10;53879.94;;;-139.68;26.63
10940;BME280;5522;42.696;23.494;2023-03-25T09:07:38;53928.19;;;-139.68;26.62
10940;BME280;5522;42.696;23.494;2023-03-25T09:10:06;53883.97;;;-139.68;26.36
10940;BME280;5522;42.696;23.494;2023-03-25T09:12:33;53877.94;;;-139.68;27.16
10940;BME280;5522;42.696;23.494;2023-03-25T09:15:00;53875.94;;;-139.68;27.66
10940;BME280;5522;42.696;23.494;2023-03-25T09:17:27;53883.97;;;-139.68;28.20
10940;BME280;5522;42.696;23.494;2023-03-25T09:19:54;53936.22;;;-139.68;27.78
10940;BME280;5522;42.696;23.494;2023-03-25T09:22:22;53910.09;;;-139.68;27.83
10940;BME280;5522;42.696;23.494;2023-03-25T09:24:49;53914.13;;;-139.68;27.56
10940;BME280;5522;42.696;23.494;2023-03-25T09:27:16;53851.81;;;-139.68;26.37
10940;BME280;5522;42.696;23.494;2023-03-25T09:29:43;53888.00;;;-139.68;26.43
10940;BME280;5522;42.696;23.494;2023-03-25T09:32:10;53867.88;;;-139.68;25.68
10940;BME280;5522;42.696;23.494;2023-03-25T09:34:37;53855.81;;;-139.68;25.45
10940;BME280;5522;42.696;23.494;2023-03-25T09:37:04;53908.09;;;-139.68;23.67
10940;BME280;5522;42.696;23.494;2023-03-25T09:39:33;53863.88;;;-139.68;23.94
10940;BME280;5522;42.696;23.494;2023-03-25T09:42:27;53871.91;;;-139.68;23.18
10940;BME280;5522;42.696;23.494;2023-03-25T09:45:05;53924.16;;;-139.68;23.01
10940;BME280;5522;42.696;23.494;2023-03-25T09:47:44;53912.13;;;-139.68;24.54
10940;BME280;5522;42.696;23.494;2023-03-25T09:50:18;53930.22;;;-139.68;25.09
10940;BME280;5522;42.696;23.494;2023-03-25T09:52:53;53904.06;;;-139.68;24.25
10940;BME280;5522;42.696;23.494;2023-03-25T09:55:25;53924.16;;;-139.68;25.29
10940;BME280;5522;42.696;23.494;2023-03-25T09:57:57;53896.03;;;-139.68;24.33
10940;BME280;5522;42.696;23.494;2023-03-25T10:00:26;53875.94;;;-139.68;24.03
10940;BME280;5522;42.696;23.494;2023-03-25T10:03:00;53892.00;;;-139.68;23.11
10940;BME280;5522;42.696;23.494;2023-03-25T10:05:49;53908.09;;;-139.68;23.18
10940;BME280;5522;42.696;23.494;2023-03-25T10:08:29;53900.06;;;-139.68;22.17
10940;BME280;5522;42.696;23.494;2023-03-25T10:11:04;53873.91;;;-139.68;22.62
10940;BME280;5522;42.696;23.494;2023-03-25T10:13:39;53861.84;;;-139.68;23.55
10940;BME280;5522;42.696;23.494;2023-03-25T10:16:13;53918.16;;;-139.68;22.98
10940;BME280;5522;42.696;23.494;2023-03-25T10:18:55;53900.06;;;-139.68;24.48
10940;BME280;5522;42.696;23.494;2023-03-25T10:21:27;53916.13;;;-139.68;24.89
10940;BME280;5522;42.696;23.494;2023-03-25T10:24:09;53904.06;;;-139.68;25.50
10940;BME280;5522;42.696;23.494;2023-03-25T10:26:44;53926.19;;;-139.68;25.84
10940;BME280;5522;42.696;23.494;2023-03-25T10:29:13;53964.38;;;-139.68;25.02
10940;BME280;5522;42.696;23.494;2023-03-25T10:31:49;53928.19;;;-139.68;25.18
10940;BME280;5522;42.696;23.494;2023-03-25T10:34:19;53924.16;;;-139.68;25.64
10940;BME280;5522;42.696;23.494;2023-03-25T10:36:52;53924.16;;;-139.68;25.98
10940;BME280;5522;42.696;23.494;2023-03-25T10:39:20;53906.06;;;-139.68;25.70
10940;BME280;5522;42.696;23.494;2023-03-25T10:41:50;53900.06;;;-139.68;25.72
10940;BME280;5522;42.696;23.494;2023-03-25T10:44:20;53918.16;;;-139.68;25.60
10940;BME280;5522;42.696;23.494;2023-03-25T10:46:55;53944.28;;;-139.68;25.97
10940;BME280;5522;42.696;23.494;2023-03-25T10:49:26;53928.19;;;-139.68;26.82
10940;BME280;5522;42.696;23.494;2023-03-25T10:51:54;53948.31;;;-139.68;26.70
10940;BME280;5522;42.696;23.494;2023-03-25T10:54:24;53914.13;;;-139.68;26.07
10940;BME280;5522;42.696;23.494;2023-03-25T10:56:55;53914.13;;;-139.68;26.39
10940;BME280;5522;42.696;23.494;2023-03-25T10:59:28;53908.09;;;-139.68;26.22
10940;BME280;5522;42.696;23.494;2023-03-25T11:01:56;53934.22;;;-139.68;26.14
10940;BME280;5522;42.696;23.494;2023-03-25T11:04:30;53916.13;;;-139.68;25.16
10940;BME280;5522;42.696;23.494;2023-03-25T11:06:59;53910.09;;;-139.68;26.20
10940;BME280;5522;42.696;23.494;2023-03-25T11:09:30;53928.19;;;-139.68;26.98
10940;BME280;5522;42.696;23.494;2023-03-25T11:12:04;53898.03;;;-139.68;27.56
10940;BME280;5522;42.696;23.494;2023-03-25T11:14:36;53910.09;;;-139.68;28.47
10940;BME280;5522;42.696;23.494;2023-03-25T11:17:10;53916.13;;;-139.68;28.15
10940;BME280;5522;42.696;23.494;2023-03-25T11:19:43;53906.06;;;-139.68;27.89
10940;BME280;5522;42.696;23.494;2023-03-25T11:22:16;53940.25;;;-139.68;28.21
10940;BME280;5522;42.696;23.494;2023-03-25T11:24:46;53922.16;;;-139.68;27.88
10940;BME280;5522;42.696;23.494;2023-03-25T11:27:20;53916.13;;;-139.68;27.56
10940;BME280;5522;42.696;23.494;2023-03-25T11:29:51;53922.16;;;-139.68;27.85
10940;BME280;5522;42.696;23.494;2023-03-25T11:32:22;53928.19;;;-139.68;28.64
10940;BME280;5522;42.696;23.494;2023-03-25T11:34:52;53916.13;;;-139.68;28.43
10940;BME280;5522;42.696;23.494;2023-03-25T11:37:20;53892.00;;;-139.68;27.72
10940;BME280;5522;42.696;23.494;2023-03-25T11:39:50;53896.03;;;-139.68;28.25
10940;BME280;5522;42.696;23.494;2023-03-25T11:42:29;53904.06;;;-139.68;27.96
10940;BME280;5522;42.696;23.494;2023-03-25T11:44:58;53928.19;;;-139.68;26.94
10940;BME280;5522;42.696;23.494;2023-03-25T11:47:29;53912.13;;;-139.68;26.58
10940;BME280;5522;42.696;23.494;2023-03-25T11:49:57;53928.19;;;-139.68;26.19
10940;BME280;5522;42.696;23.494;2023-03-25T11:52:26;53892.00;;;-139.68;27.20
10940;BME280;5522;42.696;23.494;2023-03-25T11:54:59;53960.38;;;-139.68;26.64
10940;BME280;5522;42.696;23.494;2023-03-25T11:57:38;53938.25;;;-139.68;27.15
10940;BME280;5522;42.696;23.494;2023-03-25T12:00:15;53932.22;;;-139.68;27.46
10940;BME280;5522;42.696;23.494;2023-03-25T12:02:46;53916.13;;;-139.68;26.96
10940;BME280;5522;42.696;23.494;2023-03-25T12:05:14;53885.97;;;-139.68;27.20
10940;BME280;5522;42.696;23.494;2023-03-25T12:07:42;53863.88;;;-139.68;27.50
10940;BME280;5522;42.696;23.494;2023-03-25T12:10:16;53926.19;;;-139.68;27.94
10940;BME280;5522;42.696;23.494;2023-03-25T12:12:53;53932.22;;;-139.68;27.96
10940;BME280;5522;42.696;23.494;2023-03-25T12:15:31;53875.94;;;-139.68;27.84
10940;BME280;5522;42.696;23.494;2023-03-25T12:18:07;53908.09;;;-139.68;27.80
10940;BME280;5522;42.696;23.494;2023-03-25T12:20:41;53948.31;;;-139.68;27.93
10940;BME280;5522;42.696;23.494;2023-03-25T12:23:19;53912.13;;;-139.68;28.48
10940;BME280;5522;42.696;23.494;2023-03-25T12:25:55;53940.25;;;-139.68;28.32
10940;BME280;5522;42.696;23.494;2023-03-25T12:28:43;53930.22;;;-139.68;28.39
10940;BME280;5522;42.696;23.494;2023-03-25T12:31:22;53910.09;;;-139.68;28.43
10940;BME280;5522;42.696;23.494;2023-03-25T12:34:00;53922.16;;;-139.68;28.56
10940;BME280;5522;42.696;23.494;2023-03-25T12:36:39;53888.00;;;-139.68;28.72
10940;BME280;5522;42.696;23.494;2023-03-25T12:39:26;53900.06;;;-139.68;29.11
10940;BME280;5522;42.696;23.494;2023-03-25T12:42:04;53906.06;;;-139.68;29.52
10940;BME280;5522;42.696;23.494;2023-03-25T12:44:49;53904.06;;;-139.68;29.24
10940;BME280;5522;42.696;23.494;2023-03-25T12:47:23;53908.09;;;-139.68;29.89
10940;BME280;5522;42.696;23.494;2023-03-25T12:50:08;53896.03;;;-139.68;29.82
10940;BME280;5522;42.696;23.494;2023-03-25T12:52:47;53885.97;;;-139.68;29.70
10940;BME280;5522;42.696;23.494;2023-03-25T12:55:33;53879.94;;;-139.68;29.92
10940;BME280;5522;42.696;23.494;2023-03-25T12:58:15;53863.88;;;-139.68;29.63
10940;BME280;5522;42.696;23.494;2023-03-25T13:00:52;53885.97;;;-139.68;30.22
10940;BME280;5522;42.696;23.494;2023-03-25T13:03:38;53912.13;;;-139.68;30.94
10940;BME280;5522;42.696;23.494;2023-03-25T13:06:16;53910.09;;;-139.68;30.80